sensor_id;sensor_type;location;lat;lon;timestamp;P1;durP1;ratioP1;P2;durP2;ratioP2
39066;SDS011;24821;51.988;6.020;2022-07-19T00:00:32;14.60;;;13.90;;
39066;SDS011;24821;51.988;6.020;2022-07-19T00:02:58;14.18;;;13.32;;
39066;SDS011;24821;51.988;6.020;2022-07-19T00:05:24;10.30;;;9.80;;
39066;SDS011;24821;51.988;6.020;2022-07-19T00:07:50;10.15;;;9.65;;
39066;SDS011;24821;51.988;6.020;2022-07-19T00:10:16;10.05;;;9.45;;
39066;SDS011;24821;51.988;6.020;2022-07-19T00:12:44;9.85;;;9.20;;
39066;SDS011;24821;51.988;6.020;2022-07-19T00:15:11;10.63;;;10.02;;
39066;SDS011;24821;51.988;6.020;2022-07-19T00:17:39;10.23;;;9.68;;
39066;SDS011;24821;51.988;6.020;2022-07-19T00:20:10;10.13;;;9.43;;
39066;SDS011;24821;51.988;6.020;2022-07-19T00:22:37;10.50;;;10.00;;
39066;SDS011;24821;51.988;6.020;2022-07-19T00:25:03;10.60;;;9.98;;
39066;SDS011;24821;51.988;6.020;2022-07-19T00:27:29;8.93;;;8.32;;
39066;SDS011;24821;51.988;6.020;2022-07-19T00:29:55;10.32;;;9.82;;
39066;SDS011;24821;51.988;6.020;2022-07-19T00:32:20;11.13;;;10.52;;
39066;SDS011;24821;51.988;6.020;2022-07-19T00:34:46;11.98;;;11.45;;
39066;SDS011;24821;51.988;6.020;2022-07-19T00:37:11;11.07;;;10.45;;
39066;SDS011;24821;51.988;6.020;2022-07-19T00:39:37;13.00;;;12.40;;
39066;SDS011;24821;51.988;6.020;2022-07-19T00:42:02;11.07;;;10.50;;
39066;SDS011;24821;51.988;6.020;2022-07-19T00:44:28;9.88;;;9.35;;
39066;SDS011;24821;51.988;6.020;2022-07-19T00:46:55;8.35;;;7.93;;
39066;SDS011;24821;51.988;6.020;2022-07-19T00:49:21;8.07;;;7.65;;
39066;SDS011;24821;51.988;6.020;2022-07-19T00:51:46;8.48;;;7.97;;
39066;SDS011;24821;51.988;6.020;2022-07-19T00:54:12;7.95;;;7.35;;
39066;SDS011;24821;51.988;6.020;2022-07-19T00:56:38;8.57;;;8.13;;
39066;SDS011;24821;51.988;6.020;2022-07-19T00:59:06;9.82;;;8.93;;
39066;SDS011;24821;51.988;6.020;2022-07-19T01:01:33;9.57;;;8.98;;
39066;SDS011;24821;51.988;6.020;2022-07-19T01:03:58;9.02;;;8.43;;
39066;SDS011;24821;51.988;6.020;2022-07-19T01:06:24;9.43;;;8.93;;
39066;SDS011;24821;51.988;6.020;2022-07-19T01:08:50;9.13;;;8.68;;
39066;SDS011;24821;51.988;6.020;2022-07-19T01:11:16;11.23;;;10.50;;
39066;SDS011;24821;51.988;6.020;2022-07-19T01:13:41;11.25;;;10.57;;
39066;SDS011;24821;51.988;6.020;2022-07-19T01:16:07;11.10;;;10.50;;
39066;SDS011;24821;51.988;6.020;2022-07-19T01:18:33;10.02;;;9.43;;
39066;SDS011;24821;51.988;6.020;2022-07-19T01:20:58;9.77;;;9.27;;
39066;SDS011;24821;51.988;6.020;2022-07-19T01:23:25;11.18;;;10.57;;
39066;SDS011;24821;51.988;6.020;2022-07-19T01:25:51;9.65;;;9.15;;
39066;SDS011;24821;51.988;6.020;2022-07-19T01:28:17;11.75;;;11.15;;
39066;SDS011;24821;51.988;6.020;2022-07-19T01:30:42;10.77;;;10.27;;
39066;SDS011;24821;51.988;6.020;2022-07-19T01:33:08;10.85;;;10.35;;
39066;SDS011;24821;51.988;6.020;2022-07-19T01:35:34;11.77;;;10.77;;
39066;SDS011;24821;51.988;6.020;2022-07-19T01:37:59;12.07;;;11.27;;
39066;SDS011;24821;51.988;6.020;2022-07-19T01:40:25;11.65;;;10.98;;
39066;SDS011;24821;51.988;6.020;2022-07-19T01:42:51;11.52;;;10.77;;
39066;SDS011;24821;51.988;6.020;2022-07-19T01:45:17;9.77;;;9.27;;
39066;SDS011;24821;51.988;6.020;2022-07-19T01:47:43;9.60;;;9.10;;
39066;SDS011;24821;51.988;6.020;2022-07-19T01:50:10;11.38;;;10.73;;
39066;SDS011;24821;51.988;6.020;2022-07-19T01:52:37;13.27;;;12.25;;
39066;SDS011;24821;51.988;6.020;2022-07-19T01:55:03;12.55;;;11.93;;
39066;SDS011;24821;51.988;6.020;2022-07-19T01:57:29;13.32;;;12.65;;
39066;SDS011;24821;51.988;6.020;2022-07-19T01:59:55;14.70;;;13.93;;
39066;SDS011;24821;51.988;6.020;2022-07-19T02:02:20;14.18;;;13.50;;
39066;SDS011;24821;51.988;6.020;2022-07-19T02:04:46;15.70;;;14.60;;
39066;SDS011;24821;51.988;6.020;2022-07-19T02:07:11;14.98;;;14.25;;
39066;SDS011;24821;51.988;6.020;2022-07-19T02:09:37;15.07;;;14.38;;
39066;SDS011;24821;51.988;6.020;2022-07-19T02:12:03;16.95;;;16.15;;
39066;SDS011;24821;51.988;6.020;2022-07-19T02:14:29;17.45;;;16.50;;
39066;SDS011;24821;51.988;6.020;2022-07-19T02:16:54;18.88;;;17.98;;
39066;SDS011;24821;51.988;6.020;2022-07-19T02:19:20;17.73;;;16.92;;
39066;SDS011;24821;51.988;6.020;2022-07-19T02:21:46;18.70;;;17.80;;
39066;SDS011;24821;51.988;6.020;2022-07-19T02:24:12;18.58;;;17.77;;
39066;SDS011;24821;51.988;6.020;2022-07-19T02:26:38;17.98;;;17.13;;
39066;SDS011;24821;51.988;6.020;2022-07-19T02:29:03;18.67;;;17.77;;
39066;SDS011;24821;51.988;6.020;2022-07-19T02:31:29;19.67;;;18.42;;
39066;SDS011;24821;51.988;6.020;2022-07-19T02:33:54;18.90;;;17.90;;
39066;SDS011;24821;51.988;6.020;2022-07-19T02:36:20;18.25;;;17.35;;
39066;SDS011;24821;51.988;6.020;2022-07-19T02:38:45;20.00;;;19.00;;
39066;SDS011;24821;51.988;6.020;2022-07-19T02:41:11;20.10;;;19.20;;
39066;SDS011;24821;51.988;6.020;2022-07-19T02:43:38;19.15;;;18.27;;
39066;SDS011;24821;51.988;6.020;2022-07-19T02:46:04;21.13;;;20.05;;
39066;SDS011;24821;51.988;6.020;2022-07-19T02:48:29;20.08;;;19.17;;
39066;SDS011;24821;51.988;6.020;2022-07-19T02:50:55;20.58;;;19.63;;
39066;SDS011;24821;51.988;6.020;2022-07-19T02:53:21;19.83;;;18.73;;
39066;SDS011;24821;51.988;6.020;2022-07-19T02:55:46;20.85;;;19.85;;
39066;SDS011;24821;51.988;6.020;2022-07-19T02:58:12;21.10;;;20.10;;
39066;SDS011;24821;51.988;6.020;2022-07-19T03:00:37;20.23;;;19.33;;
39066;SDS011;24821;51.988;6.020;2022-07-19T03:03:03;20.02;;;19.02;;
39066;SDS011;24821;51.988;6.020;2022-07-19T03:05:47;19.92;;;19.00;;
39066;SDS011;24821;51.988;6.020;2022-07-19T03:08:14;20.67;;;19.58;;
39066;SDS011;24821;51.988;6.020;2022-07-19T03:10:39;20.27;;;19.38;;
39066;SDS011;24821;51.988;6.020;2022-07-19T03:13:05;19.05;;;18.15;;
39066;SDS011;24821;51.988;6.020;2022-07-19T03:15:31;20.05;;;19.13;;
39066;SDS011;24821;51.988;6.020;2022-07-19T03:17:56;18.73;;;17.92;;
39066;SDS011;24821;51.988;6.020;2022-07-19T03:20:22;18.10;;;17.30;;
39066;SDS011;24821;51.988;6.020;2022-07-19T03:22:47;19.52;;;18.60;;
39066;SDS011;24821;51.988;6.020;2022-07-19T03:25:13;20.40;;;19.50;;
39066;SDS011;24821;51.988;6.020;2022-07-19T03:27:38;18.17;;;16.95;;
39066;SDS011;24821;51.988;6.020;2022-07-19T03:30:04;16.48;;;15.50;;
39066;SDS011;24821;51.988;6.020;2022-07-19T03:32:31;15.48;;;14.43;;
39066;SDS011;24821;51.988;6.020;2022-07-19T03:34:56;14.75;;;14.05;;
39066;SDS011;24821;51.988;6.020;2022-07-19T03:37:22;15.40;;;14.50;;
39066;SDS011;24821;51.988;6.020;2022-07-19T03:39:48;16.05;;;15.35;;
39066;SDS011;24821;51.988;6.020;2022-07-19T03:42:13;15.52;;;14.73;;
39066;SDS011;24821;51.988;6.020;2022-07-19T03:44:39;14.98;;;14.27;;
39066;SDS011;24821;51.988;6.020;2022-07-19T03:47:04;15.27;;;14.48;;
39066;SDS011;24821;51.988;6.020;2022-07-19T03:49:30;15.45;;;14.65;;
39066;SDS011;24821;51.988;6.020;2022-07-19T03:51:55;15.90;;;15.00;;
39066;SDS011;24821;51.988;6.020;2022-07-19T03:54:21;14.43;;;13.73;;
39066;SDS011;24821;51.988;6.020;2022-07-19T03:56:47;14.90;;;14.05;;
39066;SDS011;24821;51.988;6.020;2022-07-19T03:59:13;14.20;;;13.40;;
39066;SDS011;24821;51.988;6.020;2022-07-19T04:01:38;14.15;;;13.45;;
39066;SDS011;24821;51.988;6.020;2022-07-19T04:04:05;14.52;;;13.68;;
39066;SDS011;24821;51.988;6.020;2022-07-19T04:06:31;14.00;;;13.30;;
39066;SDS011;24821;51.988;6.020;2022-07-19T04:08:56;15.20;;;14.50;;
39066;SDS011;24821;51.988;6.020;2022-07-19T04:11:22;17.13;;;16.23;;
39066;SDS011;24821;51.988;6.020;2022-07-19T04:13:47;14.38;;;13.68;;
39066;SDS011;24821;51.988;6.020;2022-07-19T04:16:13;14.40;;;13.73;;
39066;SDS011;24821;51.988;6.020;2022-07-19T04:18:38;14.93;;;14.23;;
39066;SDS011;24821;51.988;6.020;2022-07-19T04:21:04;15.15;;;14.45;;
39066;SDS011;24821;51.988;6.020;2022-07-19T04:23:30;16.55;;;15.75;;
39066;SDS011;24821;51.988;6.020;2022-07-19T04:25:56;16.23;;;15.43;;
39066;SDS011;24821;51.988;6.020;2022-07-19T04:28:21;16.98;;;16.15;;
39066;SDS011;24821;51.988;6.020;2022-07-19T04:30:47;17.42;;;16.52;;
39066;SDS011;24821;51.988;6.020;2022-07-19T04:33:14;22.77;;;21.70;;
39066;SDS011;24821;51.988;6.020;2022-07-19T04:35:40;16.83;;;16.02;;
39066;SDS011;24821;51.988;6.020;2022-07-19T04:38:06;16.13;;;15.32;;
39066;SDS011;24821;51.988;6.020;2022-07-19T04:40:32;17.08;;;16.25;;
39066;SDS011;24821;51.988;6.020;2022-07-19T04:42:57;18.10;;;17.27;;
39066;SDS011;24821;51.988;6.020;2022-07-19T04:45:23;18.10;;;17.30;;
39066;SDS011;24821;51.988;6.020;2022-07-19T04:47:48;17.65;;;16.85;;
39066;SDS011;24821;51.988;6.020;2022-07-19T04:50:14;15.55;;;14.75;;
39066;SDS011;24821;51.988;6.020;2022-07-19T04:52:40;19.33;;;18.42;;
39066;SDS011;24821;51.988;6.020;2022-07-19T04:55:05;18.13;;;17.33;;
39066;SDS011;24821;51.988;6.020;2022-07-19T04:57:31;19.58;;;18.65;;
39066;SDS011;24821;51.988;6.020;2022-07-19T04:59:57;19.27;;;18.38;;
39066;SDS011;24821;51.988;6.020;2022-07-19T05:02:22;18.52;;;17.42;;
39066;SDS011;24821;51.988;6.020;2022-07-19T05:04:48;19.75;;;18.65;;
39066;SDS011;24821;51.988;6.020;2022-07-19T05:07:13;19.40;;;18.40;;
39066;SDS011;24821;51.988;6.020;2022-07-19T05:09:39;18.58;;;17.77;;
39066;SDS011;24821;51.988;6.020;2022-07-19T05:12:05;18.17;;;17.27;;
39066;SDS011;24821;51.988;6.020;2022-07-19T05:14:32;18.50;;;17.65;;
39066;SDS011;24821;51.988;6.020;2022-07-19T05:16:59;18.10;;;17.20;;
39066;SDS011;24821;51.988;6.020;2022-07-19T05:19:24;20.40;;;19.40;;
39066;SDS011;24821;51.988;6.020;2022-07-19T05:21:50;21.65;;;20.58;;
39066;SDS011;24821;51.988;6.020;2022-07-19T05:24:16;22.52;;;21.45;;
39066;SDS011;24821;51.988;6.020;2022-07-19T05:26:42;22.25;;;20.92;;
39066;SDS011;24821;51.988;6.020;2022-07-19T05:29:07;22.73;;;21.70;;
39066;SDS011;24821;51.988;6.020;2022-07-19T05:31:33;20.20;;;19.27;;
39066;SDS011;24821;51.988;6.020;2022-07-19T05:33:58;17.85;;;17.02;;
39066;SDS011;24821;51.988;6.020;2022-07-19T05:36:24;16.30;;;15.15;;
39066;SDS011;24821;51.988;6.020;2022-07-19T05:38:50;15.77;;;14.90;;
39066;SDS011;24821;51.988;6.020;2022-07-19T05:41:15;16.27;;;15.48;;
39066;SDS011;24821;51.988;6.020;2022-07-19T05:43:42;15.13;;;13.98;;
39066;SDS011;24821;51.988;6.020;2022-07-19T05:46:08;14.95;;;14.15;;
39066;SDS011;24821;51.988;6.020;2022-07-19T05:48:34;13.60;;;12.90;;
39066;SDS011;24821;51.988;6.020;2022-07-19T05:50:59;14.20;;;13.40;;
39066;SDS011;24821;51.988;6.020;2022-07-19T05:53:25;12.23;;;11.50;;
39066;SDS011;24821;51.988;6.020;2022-07-19T05:55:52;12.52;;;11.82;;
39066;SDS011;24821;51.988;6.020;2022-07-19T05:58:17;12.35;;;11.65;;
39066;SDS011;24821;51.988;6.020;2022-07-19T06:00:44;13.07;;;12.27;;
39066;SDS011;24821;51.988;6.020;2022-07-19T06:03:28;11.52;;;10.93;;
39066;SDS011;24821;51.988;6.020;2022-07-19T06:05:54;12.23;;;11.43;;
39066;SDS011;24821;51.988;6.020;2022-07-19T06:08:20;10.40;;;9.60;;
39066;SDS011;24821;51.988;6.020;2022-07-19T06:10:45;11.85;;;11.15;;
39066;SDS011;24821;51.988;6.020;2022-07-19T06:13:11;11.73;;;10.77;;
39066;SDS011;24821;51.988;6.020;2022-07-19T06:15:36;11.73;;;10.93;;
39066;SDS011;24821;51.988;6.020;2022-07-19T06:18:02;10.10;;;9.45;;
39066;SDS011;24821;51.988;6.020;2022-07-19T06:20:27;9.60;;;9.00;;
39066;SDS011;24821;51.988;6.020;2022-07-19T06:22:53;12.45;;;11.40;;
39066;SDS011;24821;51.988;6.020;2022-07-19T06:25:18;10.70;;;10.00;;
39066;SDS011;24821;51.988;6.020;2022-07-19T06:27:44;10.00;;;9.40;;
39066;SDS011;24821;51.988;6.020;2022-07-19T06:30:10;13.45;;;12.68;;
39066;SDS011;24821;51.988;6.020;2022-07-19T06:32:36;14.15;;;13.13;;
39066;SDS011;24821;51.988;6.020;2022-07-19T06:35:01;13.10;;;12.00;;
39066;SDS011;24821;51.988;6.020;2022-07-19T06:37:27;12.50;;;11.68;;
39066;SDS011;24821;51.988;6.020;2022-07-19T06:39:52;10.15;;;9.35;;
39066;SDS011;24821;51.988;6.020;2022-07-19T06:42:18;13.07;;;12.20;;
39066;SDS011;24821;51.988;6.020;2022-07-19T06:44:44;11.90;;;11.10;;
39066;SDS011;24821;51.988;6.020;2022-07-19T06:47:09;12.75;;;12.05;;
39066;SDS011;24821;51.988;6.020;2022-07-19T06:49:35;12.32;;;11.63;;
39066;SDS011;24821;51.988;6.020;2022-07-19T06:52:00;16.17;;;15.18;;
39066;SDS011;24821;51.988;6.020;2022-07-19T06:54:26;13.05;;;12.15;;
39066;SDS011;24821;51.988;6.020;2022-07-19T06:56:52;14.23;;;13.43;;
39066;SDS011;24821;51.988;6.020;2022-07-19T06:59:18;12.05;;;11.10;;
39066;SDS011;24821;51.988;6.020;2022-07-19T07:01:44;15.40;;;14.23;;
39066;SDS011;24821;51.988;6.020;2022-07-19T07:04:09;13.40;;;12.55;;
39066;SDS011;24821;51.988;6.020;2022-07-19T07:06:35;15.75;;;14.73;;
39066;SDS011;24821;51.988;6.020;2022-07-19T07:09:00;11.60;;;10.85;;
39066;SDS011;24821;51.988;6.020;2022-07-19T07:11:27;14.30;;;13.35;;
39066;SDS011;24821;51.988;6.020;2022-07-19T07:13:53;14.70;;;13.80;;
39066;SDS011;24821;51.988;6.020;2022-07-19T07:16:18;16.08;;;14.98;;
39066;SDS011;24821;51.988;6.020;2022-07-19T07:18:44;13.70;;;12.75;;
39066;SDS011;24821;51.988;6.020;2022-07-19T07:21:09;16.17;;;15.18;;
39066;SDS011;24821;51.988;6.020;2022-07-19T07:23:35;15.27;;;14.48;;
39066;SDS011;24821;51.988;6.020;2022-07-19T07:26:00;18.25;;;17.20;;
39066;SDS011;24821;51.988;6.020;2022-07-19T07:28:26;19.52;;;18.58;;
39066;SDS011;24821;51.988;6.020;2022-07-19T07:30:52;16.48;;;15.48;;
39066;SDS011;24821;51.988;6.020;2022-07-19T07:33:18;15.40;;;14.52;;
39066;SDS011;24821;51.988;6.020;2022-07-19T07:35:44;13.95;;;13.13;;
39066;SDS011;24821;51.988;6.020;2022-07-19T07:38:09;11.63;;;10.68;;
39066;SDS011;24821;51.988;6.020;2022-07-19T07:40:35;10.23;;;9.38;;
39066;SDS011;24821;51.988;6.020;2022-07-19T07:43:00;9.05;;;8.43;;
39066;SDS011;24821;51.988;6.020;2022-07-19T07:45:27;7.53;;;7.03;;
39066;SDS011;24821;51.988;6.020;2022-07-19T07:47:56;13.68;;;12.55;;
39066;SDS011;24821;51.988;6.020;2022-07-19T07:50:22;9.98;;;9.38;;
39066;SDS011;24821;51.988;6.020;2022-07-19T07:52:48;8.85;;;8.35;;
39066;SDS011;24821;51.988;6.020;2022-07-19T07:55:13;10.60;;;9.90;;
39066;SDS011;24821;51.988;6.020;2022-07-19T07:57:39;8.85;;;8.25;;
39066;SDS011;24821;51.988;6.020;2022-07-19T08:00:05;8.73;;;7.97;;
39066;SDS011;24821;51.988;6.020;2022-07-19T08:02:31;7.82;;;6.60;;
39066;SDS011;24821;51.988;6.020;2022-07-19T08:05:06;8.40;;;7.60;;
39066;SDS011;24821;51.988;6.020;2022-07-19T08:07:32;5.45;;;5.05;;
39066;SDS011;24821;51.988;6.020;2022-07-19T08:09:58;5.72;;;5.07;;
39066;SDS011;24821;51.988;6.020;2022-07-19T08:12:24;7.07;;;4.50;;
39066;SDS011;24821;51.988;6.020;2022-07-19T08:14:50;7.50;;;6.90;;
39066;SDS011;24821;51.988;6.020;2022-07-19T08:17:16;8.10;;;7.28;;
39066;SDS011;24821;51.988;6.020;2022-07-19T08:19:41;6.82;;;6.13;;
39066;SDS011;24821;51.988;6.020;2022-07-19T08:22:07;5.40;;;4.88;;
39066;SDS011;24821;51.988;6.020;2022-07-19T08:24:32;5.57;;;4.45;;
39066;SDS011;24821;51.988;6.020;2022-07-19T08:26:58;5.68;;;5.10;;
39066;SDS011;24821;51.988;6.020;2022-07-19T08:29:23;4.63;;;4.22;;
39066;SDS011;24821;51.988;6.020;2022-07-19T08:31:49;6.00;;;4.47;;
39066;SDS011;24821;51.988;6.020;2022-07-19T08:34:15;4.95;;;4.55;;
39066;SDS011;24821;51.988;6.020;2022-07-19T08:36:40;6.07;;;4.30;;
39066;SDS011;24821;51.988;6.020;2022-07-19T08:39:06;4.18;;;3.78;;
39066;SDS011;24821;51.988;6.020;2022-07-19T08:41:32;5.95;;;5.47;;
39066;SDS011;24821;51.988;6.020;2022-07-19T08:43:59;6.00;;;5.47;;
39066;SDS011;24821;51.988;6.020;2022-07-19T08:46:27;7.85;;;6.55;;
39066;SDS011;24821;51.988;6.020;2022-07-19T08:48:53;5.75;;;5.35;;
39066;SDS011;24821;51.988;6.020;2022-07-19T08:51:20;5.18;;;3.90;;
39066;SDS011;24821;51.988;6.020;2022-07-19T08:53:46;4.03;;;3.72;;
39066;SDS011;24821;51.988;6.020;2022-07-19T08:56:13;6.38;;;5.97;;
39066;SDS011;24821;51.988;6.020;2022-07-19T08:58:58;6.13;;;3.80;;
39066;SDS011;24821;51.988;6.020;2022-07-19T09:01:23;3.97;;;3.72;;
39066;SDS011;24821;51.988;6.020;2022-07-19T09:06:53;7.95;;;6.72;;
39066;SDS011;24821;51.988;6.020;2022-07-19T09:09:30;6.18;;;5.72;;
39066;SDS011;24821;51.988;6.020;2022-07-19T09:11:57;5.90;;;3.72;;
39066;SDS011;24821;51.988;6.020;2022-07-19T09:14:26;5.72;;;4.05;;
39066;SDS011;24821;51.988;6.020;2022-07-19T09:16:52;5.10;;;4.60;;
39066;SDS011;24821;51.988;6.020;2022-07-19T09:19:21;4.38;;;3.97;;
39066;SDS011;24821;51.988;6.020;2022-07-19T09:21:54;5.15;;;4.75;;
39066;SDS011;24821;51.988;6.020;2022-07-19T09:24:22;5.07;;;3.97;;
39066;SDS011;24821;51.988;6.020;2022-07-19T09:29:55;5.43;;;5.03;;
39066;SDS011;24821;51.988;6.020;2022-07-19T09:32:22;4.43;;;4.13;;
39066;SDS011;24821;51.988;6.020;2022-07-19T09:34:50;5.30;;;4.88;;
39066;SDS011;24821;51.988;6.020;2022-07-19T09:37:17;5.20;;;3.30;;
39066;SDS011;24821;51.988;6.020;2022-07-19T09:39:46;4.10;;;3.90;;
39066;SDS011;24821;51.988;6.020;2022-07-19T09:42:15;6.10;;;4.53;;
39066;SDS011;24821;51.988;6.020;2022-07-19T09:44:43;4.60;;;3.70;;
39066;SDS011;24821;51.988;6.020;2022-07-19T09:47:09;5.75;;;3.40;;
39066;SDS011;24821;51.988;6.020;2022-07-19T09:49:35;4.20;;;3.92;;
39066;SDS011;24821;51.988;6.020;2022-07-19T09:52:00;5.25;;;4.85;;
39066;SDS011;24821;51.988;6.020;2022-07-19T09:54:27;4.38;;;4.07;;
39066;SDS011;24821;51.988;6.020;2022-07-19T09:56:54;4.07;;;3.78;;
39066;SDS011;24821;51.988;6.020;2022-07-19T09:59:22;5.13;;;4.82;;
39066;SDS011;24821;51.988;6.020;2022-07-19T10:01:51;6.93;;;6.43;;
39066;SDS011;24821;51.988;6.020;2022-07-19T10:04:19;5.65;;;5.15;;
39066;SDS011;24821;51.988;6.020;2022-07-19T10:06:47;3.97;;;3.67;;
39066;SDS011;24821;51.988;6.020;2022-07-19T10:09:15;5.25;;;4.88;;
39066;SDS011;24821;51.988;6.020;2022-07-19T10:11:42;4.38;;;4.07;;
39066;SDS011;24821;51.988;6.020;2022-07-19T10:14:08;6.32;;;4.13;;
39066;SDS011;24821;51.988;6.020;2022-07-19T10:19:10;5.70;;;3.80;;
39066;SDS011;24821;51.988;6.020;2022-07-19T10:21:56;5.80;;;4.55;;
39066;SDS011;24821;51.988;6.020;2022-07-19T10:29:51;5.25;;;3.83;;
39066;SDS011;24821;51.988;6.020;2022-07-19T10:32:17;5.10;;;4.90;;
39066;SDS011;24821;51.988;6.020;2022-07-19T10:34:43;4.60;;;4.20;;
39066;SDS011;24821;51.988;6.020;2022-07-19T10:37:12;5.32;;;3.85;;
39066;SDS011;24821;51.988;6.020;2022-07-19T10:39:38;4.07;;;3.20;;
39066;SDS011;24821;51.988;6.020;2022-07-19T10:44:30;7.18;;;5.88;;
39066;SDS011;24821;51.988;6.020;2022-07-19T10:46:57;4.22;;;3.83;;
39066;SDS011;24821;51.988;6.020;2022-07-19T10:57:52;7.30;;;6.90;;
39066;SDS011;24821;51.988;6.020;2022-07-19T11:00:27;6.47;;;5.90;;
39066;SDS011;24821;51.988;6.020;2022-07-19T11:05:45;5.75;;;5.35;;
39066;SDS011;24821;51.988;6.020;2022-07-19T11:08:13;9.60;;;9.00;;
39066;SDS011;24821;51.988;6.020;2022-07-19T11:10:38;7.85;;;7.18;;
39066;SDS011;24821;51.988;6.020;2022-07-19T11:13:04;5.95;;;5.60;;
39066;SDS011;24821;51.988;6.020;2022-07-19T11:15:30;5.72;;;5.22;;
39066;SDS011;24821;51.988;6.020;2022-07-19T11:17:59;5.60;;;5.10;;
39066;SDS011;24821;51.988;6.020;2022-07-19T11:20:26;5.07;;;4.70;;
39066;SDS011;24821;51.988;6.020;2022-07-19T11:22:54;5.35;;;4.85;;
39066;SDS011;24821;51.988;6.020;2022-07-19T11:27:53;6.80;;;6.25;;
39066;SDS011;24821;51.988;6.020;2022-07-19T11:30:20;5.68;;;5.38;;
39066;SDS011;24821;51.988;6.020;2022-07-19T11:32:54;9.57;;;9.07;;
39066;SDS011;24821;51.988;6.020;2022-07-19T11:35:21;5.68;;;4.55;;
39066;SDS011;24821;51.988;6.020;2022-07-19T11:37:47;5.78;;;5.38;;
39066;SDS011;24821;51.988;6.020;2022-07-19T11:40:13;5.28;;;5.07;;
39066;SDS011;24821;51.988;6.020;2022-07-19T11:42:41;9.25;;;8.75;;
39066;SDS011;24821;51.988;6.020;2022-07-19T11:47:48;6.45;;;5.97;;
39066;SDS011;24821;51.988;6.020;2022-07-19T11:50:16;8.32;;;7.72;;
39066;SDS011;24821;51.988;6.020;2022-07-19T11:52:44;6.63;;;6.32;;
39066;SDS011;24821;51.988;6.020;2022-07-19T11:55:12;6.35;;;6.05;;
39066;SDS011;24821;51.988;6.020;2022-07-19T11:57:39;6.07;;;5.78;;
39066;SDS011;24821;51.988;6.020;2022-07-19T12:00:06;6.60;;;6.00;;
39066;SDS011;24821;51.988;6.020;2022-07-19T12:05:29;9.43;;;8.65;;
39066;SDS011;24821;51.988;6.020;2022-07-19T12:07:57;7.25;;;6.85;;
39066;SDS011;24821;51.988;6.020;2022-07-19T12:10:58;6.88;;;6.38;;
39066;SDS011;24821;51.988;6.020;2022-07-19T12:16:00;6.53;;;5.88;;
39066;SDS011;24821;51.988;6.020;2022-07-19T12:21:25;7.25;;;6.95;;
39066;SDS011;24821;51.988;6.020;2022-07-19T12:26:33;6.05;;;5.50;;
39066;SDS011;24821;51.988;6.020;2022-07-19T12:28:58;5.63;;;5.22;;
39066;SDS011;24821;51.988;6.020;2022-07-19T12:31:24;7.72;;;4.88;;
39066;SDS011;24821;51.988;6.020;2022-07-19T12:33:59;5.00;;;4.70;;
39066;SDS011;24821;51.988;6.020;2022-07-19T12:36:35;5.97;;;4.78;;
39066;SDS011;24821;51.988;6.020;2022-07-19T12:39:02;4.30;;;4.00;;
39066;SDS011;24821;51.988;6.020;2022-07-19T12:41:27;4.03;;;3.83;;
39066;SDS011;24821;51.988;6.020;2022-07-19T12:43:53;4.72;;;4.35;;
39066;SDS011;24821;51.988;6.020;2022-07-19T12:46:19;4.15;;;3.95;;
39066;SDS011;24821;51.988;6.020;2022-07-19T12:48:44;4.90;;;4.60;;
39066;SDS011;24821;51.988;6.020;2022-07-19T12:51:10;6.65;;;6.22;;
39066;SDS011;24821;51.988;6.020;2022-07-19T12:53:35;3.60;;;3.38;;
39066;SDS011;24821;51.988;6.020;2022-07-19T12:56:01;3.72;;;3.63;;
39066;SDS011;24821;51.988;6.020;2022-07-19T12:58:27;3.65;;;3.35;;
39066;SDS011;24821;51.988;6.020;2022-07-19T13:01:11;4.32;;;4.13;;
39066;SDS011;24821;51.988;6.020;2022-07-19T13:03:40;3.10;;;2.90;;
39066;SDS011;24821;51.988;6.020;2022-07-19T13:06:06;3.15;;;2.85;;
39066;SDS011;24821;51.988;6.020;2022-07-19T13:08:31;3.30;;;3.10;;
39066;SDS011;24821;51.988;6.020;2022-07-19T13:10:57;3.70;;;2.90;;
39066;SDS011;24821;51.988;6.020;2022-07-19T13:13:24;4.28;;;3.50;;
39066;SDS011;24821;51.988;6.020;2022-07-19T13:15:50;3.15;;;2.85;;
39066;SDS011;24821;51.988;6.020;2022-07-19T13:18:16;3.25;;;3.05;;
39066;SDS011;24821;51.988;6.020;2022-07-19T13:20:42;4.65;;;3.63;;
39066;SDS011;24821;51.988;6.020;2022-07-19T13:23:08;3.00;;;2.85;;
39066;SDS011;24821;51.988;6.020;2022-07-19T13:25:34;3.60;;;3.30;;
39066;SDS011;24821;51.988;6.020;2022-07-19T13:28:00;3.28;;;3.08;;
39066;SDS011;24821;51.988;6.020;2022-07-19T13:30:26;5.22;;;2.70;;
39066;SDS011;24821;51.988;6.020;2022-07-19T13:32:52;3.03;;;2.80;;
39066;SDS011;24821;51.988;6.020;2022-07-19T13:35:17;3.70;;;2.90;;
39066;SDS011;24821;51.988;6.020;2022-07-19T13:37:43;2.95;;;2.75;;
39066;SDS011;24821;51.988;6.020;2022-07-19T13:40:09;3.17;;;2.88;;
39066;SDS011;24821;51.988;6.020;2022-07-19T13:42:34;2.30;;;2.20;;
39066;SDS011;24821;51.988;6.020;2022-07-19T13:45:00;3.55;;;2.80;;
39066;SDS011;24821;51.988;6.020;2022-07-19T13:47:25;3.50;;;2.70;;
39066;SDS011;24821;51.988;6.020;2022-07-19T13:49:51;6.18;;;2.65;;
39066;SDS011;24821;51.988;6.020;2022-07-19T13:52:17;3.00;;;2.65;;
39066;SDS011;24821;51.988;6.020;2022-07-19T13:54:42;2.90;;;2.30;;
39066;SDS011;24821;51.988;6.020;2022-07-19T13:57:08;2.67;;;2.47;;
39066;SDS011;24821;51.988;6.020;2022-07-19T13:59:34;3.17;;;2.97;;
39066;SDS011;24821;51.988;6.020;2022-07-19T14:01:59;3.13;;;2.72;;
39066;SDS011;24821;51.988;6.020;2022-07-19T14:04:25;3.83;;;2.58;;
39066;SDS011;24821;51.988;6.020;2022-07-19T14:06:51;3.20;;;2.58;;
39066;SDS011;24821;51.988;6.020;2022-07-19T14:09:16;3.03;;;2.80;;
39066;SDS011;24821;51.988;6.020;2022-07-19T14:11:42;3.28;;;2.88;;
39066;SDS011;24821;51.988;6.020;2022-07-19T14:14:09;3.45;;;2.50;;
39066;SDS011;24821;51.988;6.020;2022-07-19T14:16:35;3.75;;;2.50;;
39066;SDS011;24821;51.988;6.020;2022-07-19T14:19:00;3.20;;;2.70;;
39066;SDS011;24821;51.988;6.020;2022-07-19T14:21:26;2.50;;;2.30;;
39066;SDS011;24821;51.988;6.020;2022-07-19T14:23:55;3.42;;;2.88;;
39066;SDS011;24821;51.988;6.020;2022-07-19T14:26:21;3.17;;;2.90;;
39066;SDS011;24821;51.988;6.020;2022-07-19T14:28:46;3.63;;;3.00;;
39066;SDS011;24821;51.988;6.020;2022-07-19T14:31:12;3.72;;;2.60;;
39066;SDS011;24821;51.988;6.020;2022-07-19T14:33:40;3.30;;;2.75;;
39066;SDS011;24821;51.988;6.020;2022-07-19T14:36:06;2.95;;;2.67;;
39066;SDS011;24821;51.988;6.020;2022-07-19T14:38:32;3.13;;;2.58;;
39066;SDS011;24821;51.988;6.020;2022-07-19T14:40:57;4.22;;;2.75;;
39066;SDS011;24821;51.988;6.020;2022-07-19T14:43:23;3.45;;;3.25;;
39066;SDS011;24821;51.988;6.020;2022-07-19T14:45:48;3.20;;;3.00;;
39066;SDS011;24821;51.988;6.020;2022-07-19T14:48:14;3.30;;;2.97;;
39066;SDS011;24821;51.988;6.020;2022-07-19T14:50:40;6.00;;;3.35;;
39066;SDS011;24821;51.988;6.020;2022-07-19T14:53:05;3.20;;;3.00;;
39066;SDS011;24821;51.988;6.020;2022-07-19T14:55:31;2.83;;;2.63;;
39066;SDS011;24821;51.988;6.020;2022-07-19T14:57:56;2.80;;;2.60;;
39066;SDS011;24821;51.988;6.020;2022-07-19T15:00:22;2.58;;;2.38;;
39066;SDS011;24821;51.988;6.020;2022-07-19T15:02:48;3.35;;;2.72;;
39066;SDS011;24821;51.988;6.020;2022-07-19T15:05:13;3.03;;;2.83;;
39066;SDS011;24821;51.988;6.020;2022-07-19T15:07:39;2.53;;;2.42;;
39066;SDS011;24821;51.988;6.020;2022-07-19T15:10:04;3.67;;;3.33;;
39066;SDS011;24821;51.988;6.020;2022-07-19T15:12:30;2.92;;;2.65;;
39066;SDS011;24821;51.988;6.020;2022-07-19T15:14:56;5.13;;;3.20;;